TimeEST,TemperatureF,Dew PointF,Humidity,Sea Level PressureIn,VisibilityMPH,Wind Direction,Wind SpeedMPH,Gust SpeedMPH,PrecipitationIn,Events,Conditions,WindDirDegrees,DateUTC
12:12 AM,42.8,41.0,93,30.21,10.0,NE,13.8,20.7,0.00,Rain,Light Rain,40,2012-12-13 05:12:00
12:53 AM,43.0,39.9,89,30.15,10.0,ENE,19.6,28.8,0.04,Rain,Light Rain,60,2012-12-13 05:53:00
1:21 AM,42.8,41.0,93,30.13,10.0,NE,17.3,26.5,0.00,Rain,Light Rain,40,2012-12-13 06:21:00
1:31 AM,42.8,41.0,93,30.14,10.0,NE,15.0,-,0.00,,Overcast,40,2012-12-13 06:31:00
1:53 AM,43.0,41.0,93,30.18,10.0,NNW,11.5,-,0.00,Rain,Light Rain,340,2012-12-13 06:53:00
2:53 AM,43.0,41.0,93,30.19,10.0,North,9.2,-,0.00,,Overcast,350,2012-12-13 07:53:00
3:53 AM,42.1,39.9,92,30.17,10.0,North,12.7,19.6,N/A,,Overcast,350,2012-12-13 08:53:00
4:53 AM,42.1,39.9,92,30.19,10.0,NNE,13.8,20.7,N/A,,Overcast,20,2012-12-13 09:53:00
5:53 AM,42.1,39.9,92,30.21,10.0,North,10.4,-,N/A,,Overcast,10,2012-12-13 10:53:00
6:53 AM,43.0,39.9,89,30.21,10.0,NNE,13.8,-,0.00,,Overcast,20,2012-12-13 11:53:00
7:53 AM,43.0,39.9,89,30.24,9.0,NNE,10.4,-,N/A,,Overcast,20,2012-12-13 12:53:00
8:53 AM,43.0,39.9,89,30.28,9.0,North,8.1,18.4,0.00,,Overcast,360,2012-12-13 13:53:00
9:44 AM,42.8,39.2,87,30.30,8.0,North,9.2,20.7,N/A,,Overcast,360,2012-12-13 14:44:00
9:53 AM,43.0,39.0,86,30.31,8.0,North,10.4,-,N/A,,Overcast,10,2012-12-13 14:53:00
10:53 AM,44.1,39.9,85,30.32,9.0,North,5.8,-,N/A,,Overcast,360,2012-12-13 15:53:00
11:07 AM,42.8,39.2,87,30.31,9.0,North,9.2,-,N/A,,Overcast,10,2012-12-13 16:07:00
11:53 AM,45.0,39.9,82,30.30,8.0,North,12.7,23.0,N/A,,Overcast,10,2012-12-13 16:53:00
12:04 PM,44.6,39.2,81,30.29,8.0,North,16.1,21.9,N/A,,Overcast,10,2012-12-13 17:04:00
12:35 PM,46.4,39.2,76,30.28,8.0,NNE,17.3,23.0,N/A,,Overcast,30,2012-12-13 17:35:00
12:53 PM,46.9,39.9,77,30.27,10.0,North,13.8,20.7,N/A,,Overcast,10,2012-12-13 17:53:00
1:51 PM,46.4,42.8,87,30.25,7.0,NNE,12.7,-,N/A,,Overcast,20,2012-12-13 18:51:00
1:53 PM,46.9,42.1,83,30.25,7.0,North,12.7,-,N/A,,Overcast,10,2012-12-13 18:53:00
2:53 PM,48.9,43.0,80,30.26,10.0,NNE,16.1,21.9,N/A,,Overcast,20,2012-12-13 19:53:00
3:47 PM,50.0,42.8,76,30.25,10.0,North,10.4,-,N/A,,Scattered Clouds,10,2012-12-13 20:47:00
3:53 PM,50.0,43.0,77,30.26,10.0,North,10.4,18.4,N/A,,Scattered Clouds,360,2012-12-13 20:53:00
4:53 PM,50.0,43.0,77,30.26,10.0,North,5.8,-,N/A,,Clear,10,2012-12-13 21:53:00
6:53 PM,46.9,42.1,83,30.30,10.0,North,4.6,-,N/A,,Clear,360,2012-12-13 23:53:00
7:53 PM,46.0,42.1,86,30.31,10.0,North,5.8,-,N/A,,Clear,10,2012-12-14 00:53:00
8:53 PM,45.0,41.0,86,30.32,10.0,North,4.6,-,N/A,,Clear,360,2012-12-14 01:53:00
9:53 PM,43.0,39.9,89,30.32,10.0,NNE,3.5,-,N/A,,Clear,20,2012-12-14 02:53:00
10:53 PM,43.0,39.9,89,30.32,10.0,North,5.8,-,N/A,,Clear,10,2012-12-14 03:53:00
11:53 PM,42.1,39.0,89,30.31,10.0,NNE,5.8,-,N/A,,Clear,30,2012-12-14 04:53:00